sensor_id;sensor_type;location;lat;lon;timestamp;P1;durP1;ratioP1;P2;durP2;ratioP2
59607;SDS011;45426;44.726;10.390;2023-03-17T00:01:45;7.35;;;3.70;;
59607;SDS011;45426;44.726;10.390;2023-03-17T00:04:15;7.40;;;3.92;;
59607;SDS011;45426;44.726;10.390;2023-03-17T00:06:42;12.52;;;5.13;;
59607;SDS011;45426;44.726;10.390;2023-03-17T00:09:10;11.65;;;5.25;;
59607;SDS011;45426;44.726;10.390;2023-03-17T00:11:38;11.18;;;4.97;;
59607;SDS011;45426;44.726;10.390;2023-03-17T00:14:04;10.15;;;4.68;;
59607;SDS011;45426;44.726;10.390;2023-03-17T00:16:30;8.77;;;3.63;;
59607;SDS011;45426;44.726;10.390;2023-03-17T00:18:58;9.73;;;4.13;;
59607;SDS011;45426;44.726;10.390;2023-03-17T00:21:28;9.20;;;4.35;;
59607;SDS011;45426;44.726;10.390;2023-03-17T00:23:56;10.05;;;4.45;;
59607;SDS011;45426;44.726;10.390;2023-03-17T00:26:22;10.10;;;4.40;;
59607;SDS011;45426;44.726;10.390;2023-03-17T00:28:49;8.13;;;3.70;;
59607;SDS011;45426;44.726;10.390;2023-03-17T00:31:28;9.05;;;4.18;;
59607;SDS011;45426;44.726;10.390;2023-03-17T00:33:54;9.63;;;4.13;;
59607;SDS011;45426;44.726;10.390;2023-03-17T00:38:46;9.90;;;4.07;;
59607;SDS011;45426;44.726;10.390;2023-03-17T00:41:12;14.05;;;4.60;;
59607;SDS011;45426;44.726;10.390;2023-03-17T00:43:38;11.88;;;4.82;;
59607;SDS011;45426;44.726;10.390;2023-03-17T00:46:14;9.85;;;4.20;;
59607;SDS011;45426;44.726;10.390;2023-03-17T00:48:45;10.65;;;4.13;;
59607;SDS011;45426;44.726;10.390;2023-03-17T00:51:13;14.85;;;4.72;;
59607;SDS011;45426;44.726;10.390;2023-03-17T00:53:40;9.85;;;3.72;;
59607;SDS011;45426;44.726;10.390;2023-03-17T00:56:13;9.70;;;4.25;;
59607;SDS011;45426;44.726;10.390;2023-03-17T00:58:43;7.15;;;3.50;;
59607;SDS011;45426;44.726;10.390;2023-03-17T01:01:09;11.05;;;4.40;;
59607;SDS011;45426;44.726;10.390;2023-03-17T01:03:35;10.05;;;4.45;;
59607;SDS011;45426;44.726;10.390;2023-03-17T01:06:01;7.82;;;3.92;;
59607;SDS011;45426;44.726;10.390;2023-03-17T01:08:28;9.07;;;3.83;;
59607;SDS011;45426;44.726;10.390;2023-03-17T01:10:55;11.63;;;4.00;;
59607;SDS011;45426;44.726;10.390;2023-03-17T01:13:22;9.15;;;4.25;;
59607;SDS011;45426;44.726;10.390;2023-03-17T01:15:48;11.00;;;3.90;;
59607;SDS011;45426;44.726;10.390;2023-03-17T01:18:16;8.30;;;3.90;;
59607;SDS011;45426;44.726;10.390;2023-03-17T01:20:43;8.18;;;3.53;;
59607;SDS011;45426;44.726;10.390;2023-03-17T01:23:09;9.32;;;3.95;;
59607;SDS011;45426;44.726;10.390;2023-03-17T01:25:36;9.05;;;3.90;;
59607;SDS011;45426;44.726;10.390;2023-03-17T01:28:03;8.93;;;4.00;;
59607;SDS011;45426;44.726;10.390;2023-03-17T01:32:59;10.55;;;4.20;;
59607;SDS011;45426;44.726;10.390;2023-03-17T01:35:26;8.27;;;4.20;;
59607;SDS011;45426;44.726;10.390;2023-03-17T01:37:56;10.23;;;4.50;;
59607;SDS011;45426;44.726;10.390;2023-03-17T01:40:23;11.73;;;4.75;;
59607;SDS011;45426;44.726;10.390;2023-03-17T01:43:01;9.05;;;4.10;;
59607;SDS011;45426;44.726;10.390;2023-03-17T01:48:31;12.35;;;4.43;;
59607;SDS011;45426;44.726;10.390;2023-03-17T01:51:20;9.68;;;3.90;;
59607;SDS011;45426;44.726;10.390;2023-03-17T01:53:53;8.80;;;3.75;;
59607;SDS011;45426;44.726;10.390;2023-03-17T01:56:19;10.02;;;4.03;;
59607;SDS011;45426;44.726;10.390;2023-03-17T01:58:46;7.93;;;3.50;;
59607;SDS011;45426;44.726;10.390;2023-03-17T02:01:16;8.95;;;3.72;;
59607;SDS011;45426;44.726;10.390;2023-03-17T02:03:41;9.63;;;3.90;;
59607;SDS011;45426;44.726;10.390;2023-03-17T02:06:09;7.38;;;3.70;;
59607;SDS011;45426;44.726;10.390;2023-03-17T02:08:35;10.15;;;4.00;;
59607;SDS011;45426;44.726;10.390;2023-03-17T02:11:00;8.18;;;3.63;;
59607;SDS011;45426;44.726;10.390;2023-03-17T02:13:29;8.82;;;3.63;;
59607;SDS011;45426;44.726;10.390;2023-03-17T02:15:55;9.25;;;3.78;;
59607;SDS011;45426;44.726;10.390;2023-03-17T02:18:21;7.43;;;3.42;;
59607;SDS011;45426;44.726;10.390;2023-03-17T02:25:59;8.45;;;3.70;;
59607;SDS011;45426;44.726;10.390;2023-03-17T02:28:27;8.77;;;3.28;;
59607;SDS011;45426;44.726;10.390;2023-03-17T02:30:54;7.68;;;3.35;;
59607;SDS011;45426;44.726;10.390;2023-03-17T02:33:21;7.75;;;3.28;;
59607;SDS011;45426;44.726;10.390;2023-03-17T02:35:47;6.50;;;3.40;;
59607;SDS011;45426;44.726;10.390;2023-03-17T02:38:12;7.55;;;3.10;;
59607;SDS011;45426;44.726;10.390;2023-03-17T02:40:37;7.55;;;3.60;;
59607;SDS011;45426;44.726;10.390;2023-03-17T02:43:03;7.30;;;3.03;;
59607;SDS011;45426;44.726;10.390;2023-03-17T02:45:29;6.25;;;3.03;;
59607;SDS011;45426;44.726;10.390;2023-03-17T02:47:55;8.23;;;3.40;;
59607;SDS011;45426;44.726;10.390;2023-03-17T02:50:22;7.05;;;3.10;;
59607;SDS011;45426;44.726;10.390;2023-03-17T02:52:51;7.22;;;3.22;;
59607;SDS011;45426;44.726;10.390;2023-03-17T02:55:17;9.63;;;3.60;;
59607;SDS011;45426;44.726;10.390;2023-03-17T02:57:43;6.53;;;3.28;;
59607;SDS011;45426;44.726;10.390;2023-03-17T03:00:09;6.57;;;3.42;;
59607;SDS011;45426;44.726;10.390;2023-03-17T03:02:36;5.75;;;3.00;;
59607;SDS011;45426;44.726;10.390;2023-03-17T03:05:02;7.32;;;3.15;;
59607;SDS011;45426;44.726;10.390;2023-03-17T03:07:29;7.35;;;3.00;;
59607;SDS011;45426;44.726;10.390;2023-03-17T03:09:54;6.43;;;3.35;;
59607;SDS011;45426;44.726;10.390;2023-03-17T03:12:20;7.97;;;3.35;;
59607;SDS011;45426;44.726;10.390;2023-03-17T03:14:45;8.23;;;3.53;;
59607;SDS011;45426;44.726;10.390;2023-03-17T03:17:11;6.60;;;3.20;;
59607;SDS011;45426;44.726;10.390;2023-03-17T03:19:37;7.43;;;3.42;;
59607;SDS011;45426;44.726;10.390;2023-03-17T03:22:03;9.77;;;3.63;;
59607;SDS011;45426;44.726;10.390;2023-03-17T03:24:29;7.60;;;3.60;;
59607;SDS011;45426;44.726;10.390;2023-03-17T03:26:54;6.00;;;2.72;;
59607;SDS011;45426;44.726;10.390;2023-03-17T03:29:20;7.85;;;3.13;;
59607;SDS011;45426;44.726;10.390;2023-03-17T03:31:45;9.80;;;3.85;;
59607;SDS011;45426;44.726;10.390;2023-03-17T03:34:12;8.77;;;3.38;;
59607;SDS011;45426;44.726;10.390;2023-03-17T03:36:38;6.78;;;2.90;;
59607;SDS011;45426;44.726;10.390;2023-03-17T03:39:03;7.15;;;3.25;;
59607;SDS011;45426;44.726;10.390;2023-03-17T03:41:29;6.65;;;2.92;;
59607;SDS011;45426;44.726;10.390;2023-03-17T03:43:54;8.27;;;3.30;;
59607;SDS011;45426;44.726;10.390;2023-03-17T03:46:20;7.97;;;3.40;;
59607;SDS011;45426;44.726;10.390;2023-03-17T03:48:45;7.03;;;3.22;;
59607;SDS011;45426;44.726;10.390;2023-03-17T03:51:11;7.07;;;3.40;;
59607;SDS011;45426;44.726;10.390;2023-03-17T03:53:36;5.78;;;3.15;;
59607;SDS011;45426;44.726;10.390;2023-03-17T03:56:01;7.10;;;3.50;;
59607;SDS011;45426;44.726;10.390;2023-03-17T03:58:27;6.22;;;3.10;;
59607;SDS011;45426;44.726;10.390;2023-03-17T04:00:52;8.05;;;3.20;;
59607;SDS011;45426;44.726;10.390;2023-03-17T04:03:18;7.78;;;3.15;;
59607;SDS011;45426;44.726;10.390;2023-03-17T04:05:43;6.45;;;3.03;;
59607;SDS011;45426;44.726;10.390;2023-03-17T04:08:09;7.20;;;3.60;;
59607;SDS011;45426;44.726;10.390;2023-03-17T04:10:35;7.93;;;3.45;;
59607;SDS011;45426;44.726;10.390;2023-03-17T04:13:01;6.75;;;2.83;;
59607;SDS011;45426;44.726;10.390;2023-03-17T04:15:26;5.55;;;2.90;;
59607;SDS011;45426;44.726;10.390;2023-03-17T04:17:52;8.65;;;3.30;;
59607;SDS011;45426;44.726;10.390;2023-03-17T04:20:19;8.50;;;3.03;;
59607;SDS011;45426;44.726;10.390;2023-03-17T04:22:44;5.85;;;2.95;;
59607;SDS011;45426;44.726;10.390;2023-03-17T04:25:11;6.03;;;3.17;;
59607;SDS011;45426;44.726;10.390;2023-03-17T04:27:40;8.55;;;3.00;;
59607;SDS011;45426;44.726;10.390;2023-03-17T04:30:07;8.00;;;2.90;;
59607;SDS011;45426;44.726;10.390;2023-03-17T04:32:33;6.25;;;3.03;;
59607;SDS011;45426;44.726;10.390;2023-03-17T04:34:58;5.68;;;2.75;;
59607;SDS011;45426;44.726;10.390;2023-03-17T04:37:24;7.35;;;3.10;;
59607;SDS011;45426;44.726;10.390;2023-03-17T04:39:50;7.90;;;3.13;;
59607;SDS011;45426;44.726;10.390;2023-03-17T04:42:16;6.65;;;3.30;;
59607;SDS011;45426;44.726;10.390;2023-03-17T04:44:41;7.25;;;3.38;;
59607;SDS011;45426;44.726;10.390;2023-03-17T04:47:07;6.55;;;3.30;;
59607;SDS011;45426;44.726;10.390;2023-03-17T04:49:33;7.85;;;3.50;;
59607;SDS011;45426;44.726;10.390;2023-03-17T04:51:58;5.97;;;3.00;;
59607;SDS011;45426;44.726;10.390;2023-03-17T04:54:23;5.82;;;3.10;;
59607;SDS011;45426;44.726;10.390;2023-03-17T04:56:49;7.38;;;3.10;;
59607;SDS011;45426;44.726;10.390;2023-03-17T04:59:14;8.77;;;3.13;;
59607;SDS011;45426;44.726;10.390;2023-03-17T05:01:40;10.98;;;3.45;;
59607;SDS011;45426;44.726;10.390;2023-03-17T05:04:06;9.10;;;3.20;;
59607;SDS011;45426;44.726;10.390;2023-03-17T05:06:32;6.90;;;3.28;;
59607;SDS011;45426;44.726;10.390;2023-03-17T05:08:58;9.52;;;3.60;;
59607;SDS011;45426;44.726;10.390;2023-03-17T05:11:23;5.88;;;3.00;;
59607;SDS011;45426;44.726;10.390;2023-03-17T05:13:48;6.82;;;3.30;;
59607;SDS011;45426;44.726;10.390;2023-03-17T05:16:14;7.20;;;3.05;;
59607;SDS011;45426;44.726;10.390;2023-03-17T05:18:40;6.50;;;3.50;;
59607;SDS011;45426;44.726;10.390;2023-03-17T05:21:06;7.70;;;3.60;;
59607;SDS011;45426;44.726;10.390;2023-03-17T05:23:31;7.55;;;3.30;;
59607;SDS011;45426;44.726;10.390;2023-03-17T05:25:58;7.03;;;3.40;;
59607;SDS011;45426;44.726;10.390;2023-03-17T05:28:23;8.18;;;3.00;;
59607;SDS011;45426;44.726;10.390;2023-03-17T05:30:48;7.00;;;3.30;;
59607;SDS011;45426;44.726;10.390;2023-03-17T05:33:14;9.10;;;3.28;;
59607;SDS011;45426;44.726;10.390;2023-03-17T05:35:40;7.65;;;3.53;;
59607;SDS011;45426;44.726;10.390;2023-03-17T05:38:06;7.93;;;3.72;;
59607;SDS011;45426;44.726;10.390;2023-03-17T05:40:33;6.32;;;2.90;;
59607;SDS011;45426;44.726;10.390;2023-03-17T05:42:59;10.82;;;3.50;;
59607;SDS011;45426;44.726;10.390;2023-03-17T05:45:25;8.63;;;3.40;;
59607;SDS011;45426;44.726;10.390;2023-03-17T05:47:51;8.73;;;3.40;;
59607;SDS011;45426;44.726;10.390;2023-03-17T05:50:16;6.72;;;2.95;;
59607;SDS011;45426;44.726;10.390;2023-03-17T05:52:41;7.82;;;3.33;;
59607;SDS011;45426;44.726;10.390;2023-03-17T05:55:07;7.45;;;3.53;;
59607;SDS011;45426;44.726;10.390;2023-03-17T05:57:33;6.82;;;3.28;;
59607;SDS011;45426;44.726;10.390;2023-03-17T05:59:58;8.25;;;3.60;;
59607;SDS011;45426;44.726;10.390;2023-03-17T06:02:24;7.20;;;3.58;;
59607;SDS011;45426;44.726;10.390;2023-03-17T06:04:49;7.18;;;3.35;;
59607;SDS011;45426;44.726;10.390;2023-03-17T06:07:15;8.85;;;3.80;;
59607;SDS011;45426;44.726;10.390;2023-03-17T06:09:41;8.27;;;3.15;;
59607;SDS011;45426;44.726;10.390;2023-03-17T06:12:07;7.78;;;3.20;;
59607;SDS011;45426;44.726;10.390;2023-03-17T06:14:33;7.30;;;3.55;;
59607;SDS011;45426;44.726;10.390;2023-03-17T06:16:59;9.55;;;3.55;;
59607;SDS011;45426;44.726;10.390;2023-03-17T06:19:25;8.73;;;3.63;;
59607;SDS011;45426;44.726;10.390;2023-03-17T06:21:51;7.45;;;3.50;;
59607;SDS011;45426;44.726;10.390;2023-03-17T06:24:16;8.23;;;3.38;;
59607;SDS011;45426;44.726;10.390;2023-03-17T06:26:42;8.40;;;3.33;;
59607;SDS011;45426;44.726;10.390;2023-03-17T06:29:07;7.53;;;3.33;;
59607;SDS011;45426;44.726;10.390;2023-03-17T06:31:34;8.38;;;3.42;;
59607;SDS011;45426;44.726;10.390;2023-03-17T06:34:01;8.90;;;3.70;;
59607;SDS011;45426;44.726;10.390;2023-03-17T06:36:27;8.85;;;3.60;;
59607;SDS011;45426;44.726;10.390;2023-03-17T06:38:52;8.65;;;3.40;;
59607;SDS011;45426;44.726;10.390;2023-03-17T06:41:18;9.38;;;4.20;;
59607;SDS011;45426;44.726;10.390;2023-03-17T06:43:43;8.73;;;3.30;;
59607;SDS011;45426;44.726;10.390;2023-03-17T06:46:09;5.75;;;3.10;;
59607;SDS011;45426;44.726;10.390;2023-03-17T06:48:35;6.88;;;3.05;;
59607;SDS011;45426;44.726;10.390;2023-03-17T06:51:00;9.23;;;3.80;;
59607;SDS011;45426;44.726;10.390;2023-03-17T06:53:26;8.82;;;3.88;;
59607;SDS011;45426;44.726;10.390;2023-03-17T06:55:51;9.73;;;4.22;;
59607;SDS011;45426;44.726;10.390;2023-03-17T06:58:17;9.30;;;4.28;;
59607;SDS011;45426;44.726;10.390;2023-03-17T07:00:44;10.07;;;4.40;;
59607;SDS011;45426;44.726;10.390;2023-03-17T07:03:10;9.07;;;4.10;;
59607;SDS011;45426;44.726;10.390;2023-03-17T07:05:39;6.75;;;3.65;;
59607;SDS011;45426;44.726;10.390;2023-03-17T07:08:06;9.02;;;4.07;;
59607;SDS011;45426;44.726;10.390;2023-03-17T07:10:32;13.73;;;3.85;;
59607;SDS011;45426;44.726;10.390;2023-03-17T07:12:57;8.27;;;3.53;;
59607;SDS011;45426;44.726;10.390;2023-03-17T07:15:23;8.60;;;3.92;;
59607;SDS011;45426;44.726;10.390;2023-03-17T07:17:48;9.68;;;4.05;;
59607;SDS011;45426;44.726;10.390;2023-03-17T07:20:14;8.73;;;4.10;;
59607;SDS011;45426;44.726;10.390;2023-03-17T07:22:39;10.15;;;4.22;;
59607;SDS011;45426;44.726;10.390;2023-03-17T07:25:05;11.70;;;5.90;;
59607;SDS011;45426;44.726;10.390;2023-03-17T07:27:32;13.98;;;4.95;;
59607;SDS011;45426;44.726;10.390;2023-03-17T07:29:58;14.57;;;5.15;;
59607;SDS011;45426;44.726;10.390;2023-03-17T07:32:26;8.77;;;4.97;;
59607;SDS011;45426;44.726;10.390;2023-03-17T07:34:52;12.90;;;5.93;;
59607;SDS011;45426;44.726;10.390;2023-03-17T07:37:18;9.10;;;4.95;;
59607;SDS011;45426;44.726;10.390;2023-03-17T07:39:45;12.40;;;5.97;;
59607;SDS011;45426;44.726;10.390;2023-03-17T07:42:12;11.52;;;5.55;;
59607;SDS011;45426;44.726;10.390;2023-03-17T07:44:39;10.32;;;4.78;;
59607;SDS011;45426;44.726;10.390;2023-03-17T07:47:05;8.52;;;5.18;;
59607;SDS011;45426;44.726;10.390;2023-03-17T07:49:32;11.02;;;4.85;;
59607;SDS011;45426;44.726;10.390;2023-03-17T07:51:57;8.50;;;4.90;;
59607;SDS011;45426;44.726;10.390;2023-03-17T07:54:23;13.20;;;6.40;;
59607;SDS011;45426;44.726;10.390;2023-03-17T07:56:50;9.05;;;4.70;;
59607;SDS011;45426;44.726;10.390;2023-03-17T07:59:16;9.98;;;5.85;;
59607;SDS011;45426;44.726;10.390;2023-03-17T08:01:42;10.00;;;4.75;;
59607;SDS011;45426;44.726;10.390;2023-03-17T08:04:09;9.50;;;5.50;;
59607;SDS011;45426;44.726;10.390;2023-03-17T08:06:36;11.48;;;4.90;;
59607;SDS011;45426;44.726;10.390;2023-03-17T08:09:02;9.95;;;5.05;;
59607;SDS011;45426;44.726;10.390;2023-03-17T08:11:28;8.88;;;4.68;;
59607;SDS011;45426;44.726;10.390;2023-03-17T08:13:53;10.27;;;4.97;;
59607;SDS011;45426;44.726;10.390;2023-03-17T08:16:19;9.07;;;5.68;;
59607;SDS011;45426;44.726;10.390;2023-03-17T08:18:44;9.63;;;5.15;;
59607;SDS011;45426;44.726;10.390;2023-03-17T08:21:10;15.65;;;5.05;;
59607;SDS011;45426;44.726;10.390;2023-03-17T08:23:35;8.50;;;4.88;;
59607;SDS011;45426;44.726;10.390;2023-03-17T08:26:02;9.93;;;5.70;;
59607;SDS011;45426;44.726;10.390;2023-03-17T08:28:28;14.20;;;8.57;;
59607;SDS011;45426;44.726;10.390;2023-03-17T08:31:04;9.85;;;5.32;;
59607;SDS011;45426;44.726;10.390;2023-03-17T08:33:33;10.65;;;5.40;;
59607;SDS011;45426;44.726;10.390;2023-03-17T08:36:02;12.23;;;5.32;;
59607;SDS011;45426;44.726;10.390;2023-03-17T08:38:29;9.40;;;4.90;;
59607;SDS011;45426;44.726;10.390;2023-03-17T08:40:58;12.68;;;5.50;;
59607;SDS011;45426;44.726;10.390;2023-03-17T08:43:25;10.30;;;5.10;;
59607;SDS011;45426;44.726;10.390;2023-03-17T08:45:52;11.18;;;5.30;;
59607;SDS011;45426;44.726;10.390;2023-03-17T08:48:24;10.77;;;5.20;;
59607;SDS011;45426;44.726;10.390;2023-03-17T08:50:50;13.32;;;5.75;;
59607;SDS011;45426;44.726;10.390;2023-03-17T08:53:15;11.00;;;5.30;;
59607;SDS011;45426;44.726;10.390;2023-03-17T08:55:40;11.18;;;5.75;;
59607;SDS011;45426;44.726;10.390;2023-03-17T08:58:06;9.45;;;5.47;;
59607;SDS011;45426;44.726;10.390;2023-03-17T09:00:32;12.45;;;5.60;;
59607;SDS011;45426;44.726;10.390;2023-03-17T09:02:57;11.45;;;5.55;;
59607;SDS011;45426;44.726;10.390;2023-03-17T09:05:23;9.10;;;5.35;;
59607;SDS011;45426;44.726;10.390;2023-03-17T09:07:49;9.43;;;4.75;;
59607;SDS011;45426;44.726;10.390;2023-03-17T09:10:14;7.57;;;4.47;;
59607;SDS011;45426;44.726;10.390;2023-03-17T09:12:40;10.88;;;4.82;;
59607;SDS011;45426;44.726;10.390;2023-03-17T09:15:07;8.77;;;4.80;;
59607;SDS011;45426;44.726;10.390;2023-03-17T09:17:32;9.90;;;4.80;;
59607;SDS011;45426;44.726;10.390;2023-03-17T09:19:58;10.18;;;4.93;;
59607;SDS011;45426;44.726;10.390;2023-03-17T09:22:24;10.80;;;4.55;;
59607;SDS011;45426;44.726;10.390;2023-03-17T09:24:49;8.82;;;4.40;;
59607;SDS011;45426;44.726;10.390;2023-03-17T09:27:22;9.02;;;4.60;;
59607;SDS011;45426;44.726;10.390;2023-03-17T09:29:48;9.50;;;4.75;;
59607;SDS011;45426;44.726;10.390;2023-03-17T09:32:14;7.95;;;4.50;;
59607;SDS011;45426;44.726;10.390;2023-03-17T09:34:43;9.70;;;4.53;;
59607;SDS011;45426;44.726;10.390;2023-03-17T09:37:08;9.75;;;4.10;;
59607;SDS011;45426;44.726;10.390;2023-03-17T09:39:34;8.52;;;4.28;;
59607;SDS011;45426;44.726;10.390;2023-03-17T09:45:13;8.23;;;4.25;;
59607;SDS011;45426;44.726;10.390;2023-03-17T09:50:12;7.07;;;4.43;;
59607;SDS011;45426;44.726;10.390;2023-03-17T09:52:45;7.43;;;3.83;;
59607;SDS011;45426;44.726;10.390;2023-03-17T09:55:21;9.25;;;3.92;;
59607;SDS011;45426;44.726;10.390;2023-03-17T09:57:51;9.75;;;4.20;;
59607;SDS011;45426;44.726;10.390;2023-03-17T10:00:20;7.10;;;3.80;;
59607;SDS011;45426;44.726;10.390;2023-03-17T10:02:50;10.30;;;4.18;;
59607;SDS011;45426;44.726;10.390;2023-03-17T10:13:20;11.63;;;4.30;;
59607;SDS011;45426;44.726;10.390;2023-03-17T10:21:08;6.63;;;3.13;;
59607;SDS011;45426;44.726;10.390;2023-03-17T10:23:37;6.45;;;3.63;;
59607;SDS011;45426;44.726;10.390;2023-03-17T10:26:07;7.25;;;3.50;;
59607;SDS011;45426;44.726;10.390;2023-03-17T10:28:46;5.95;;;3.40;;
59607;SDS011;45426;44.726;10.390;2023-03-17T10:33:42;6.03;;;3.20;;
59607;SDS011;45426;44.726;10.390;2023-03-17T10:36:13;8.50;;;3.70;;
59607;SDS011;45426;44.726;10.390;2023-03-17T10:38:49;8.30;;;3.95;;
59607;SDS011;45426;44.726;10.390;2023-03-17T10:41:18;5.72;;;3.45;;
59607;SDS011;45426;44.726;10.390;2023-03-17T10:43:46;7.75;;;3.95;;
59607;SDS011;45426;44.726;10.390;2023-03-17T10:46:21;6.78;;;3.08;;
59607;SDS011;45426;44.726;10.390;2023-03-17T10:48:52;9.18;;;4.05;;
59607;SDS011;45426;44.726;10.390;2023-03-17T10:51:26;8.23;;;3.47;;
59607;SDS011;45426;44.726;10.390;2023-03-17T10:53:58;7.20;;;3.95;;
59607;SDS011;45426;44.726;10.390;2023-03-17T10:56:26;7.05;;;3.80;;
59607;SDS011;45426;44.726;10.390;2023-03-17T10:58:55;6.32;;;3.75;;
59607;SDS011;45426;44.726;10.390;2023-03-17T11:01:56;6.82;;;3.70;;
59607;SDS011;45426;44.726;10.390;2023-03-17T11:04:28;8.38;;;3.70;;
59607;SDS011;45426;44.726;10.390;2023-03-17T11:07:14;6.93;;;3.58;;
59607;SDS011;45426;44.726;10.390;2023-03-17T11:09:50;7.32;;;3.80;;
59607;SDS011;45426;44.726;10.390;2023-03-17T11:14:47;8.93;;;3.90;;
59607;SDS011;45426;44.726;10.390;2023-03-17T11:22:47;8.13;;;3.60;;
59607;SDS011;45426;44.726;10.390;2023-03-17T11:25:20;6.05;;;3.13;;
59607;SDS011;45426;44.726;10.390;2023-03-17T11:39:15;5.20;;;2.80;;
59607;SDS011;45426;44.726;10.390;2023-03-17T11:50:29;6.07;;;3.00;;
59607;SDS011;45426;44.726;10.390;2023-03-17T11:59:36;5.85;;;2.88;;
59607;SDS011;45426;44.726;10.390;2023-03-17T12:05:05;5.65;;;3.13;;
59607;SDS011;45426;44.726;10.390;2023-03-17T12:07:36;4.78;;;2.60;;
59607;SDS011;45426;44.726;10.390;2023-03-17T12:12:54;5.10;;;2.88;;
59607;SDS011;45426;44.726;10.390;2023-03-17T12:15:28;4.82;;;2.75;;
59607;SDS011;45426;44.726;10.390;2023-03-17T12:23:45;6.57;;;3.20;;
59607;SDS011;45426;44.726;10.390;2023-03-17T12:26:20;5.25;;;3.33;;
59607;SDS011;45426;44.726;10.390;2023-03-17T12:28:57;5.13;;;3.15;;
59607;SDS011;45426;44.726;10.390;2023-03-17T12:31:31;5.55;;;3.13;;
59607;SDS011;45426;44.726;10.390;2023-03-17T12:36:39;6.88;;;3.40;;
59607;SDS011;45426;44.726;10.390;2023-03-17T12:53:37;7.75;;;4.00;;
59607;SDS011;45426;44.726;10.390;2023-03-17T12:56:09;6.00;;;3.50;;
59607;SDS011;45426;44.726;10.390;2023-03-17T12:59:01;6.10;;;3.13;;
59607;SDS011;45426;44.726;10.390;2023-03-17T13:01:32;7.72;;;3.53;;
59607;SDS011;45426;44.726;10.390;2023-03-17T13:06:56;7.82;;;2.92;;
59607;SDS011;45426;44.726;10.390;2023-03-17T13:09:33;8.02;;;3.40;;
59607;SDS011;45426;44.726;10.390;2023-03-17T13:14:59;7.50;;;3.42;;
59607;SDS011;45426;44.726;10.390;2023-03-17T13:30:42;5.63;;;3.28;;
59607;SDS011;45426;44.726;10.390;2023-03-17T13:33:19;5.70;;;3.10;;
59607;SDS011;45426;44.726;10.390;2023-03-17T13:36:00;6.50;;;3.45;;
59607;SDS011;45426;44.726;10.390;2023-03-17T13:38:41;7.97;;;3.70;;
59607;SDS011;45426;44.726;10.390;2023-03-17T13:46:42;6.70;;;3.78;;
59607;SDS011;45426;44.726;10.390;2023-03-17T13:51:53;7.57;;;3.73;;
59607;SDS011;45426;44.726;10.390;2023-03-17T13:56:53;6.88;;;3.47;;
59607;SDS011;45426;44.726;10.390;2023-03-17T14:01:55;6.75;;;3.60;;
59607;SDS011;45426;44.726;10.390;2023-03-17T14:04:42;8.75;;;3.60;;
59607;SDS011;45426;44.726;10.390;2023-03-17T14:07:17;8.55;;;3.30;;
59607;SDS011;45426;44.726;10.390;2023-03-17T14:12:39;7.05;;;3.20;;
59607;SDS011;45426;44.726;10.390;2023-03-17T14:15:31;7.10;;;3.55;;
59607;SDS011;45426;44.726;10.390;2023-03-17T14:20:39;5.95;;;3.20;;
59607;SDS011;45426;44.726;10.390;2023-03-17T14:23:05;6.38;;;3.58;;
59607;SDS011;45426;44.726;10.390;2023-03-17T14:25:32;8.15;;;3.78;;
59607;SDS011;45426;44.726;10.390;2023-03-17T14:27:59;6.22;;;3.10;;
59607;SDS011;45426;44.726;10.390;2023-03-17T14:30:30;5.82;;;3.17;;
59607;SDS011;45426;44.726;10.390;2023-03-17T14:33:02;6.32;;;3.10;;
59607;SDS011;45426;44.726;10.390;2023-03-17T14:35:51;5.68;;;3.00;;
59607;SDS011;45426;44.726;10.390;2023-03-17T14:40:45;6.97;;;3.30;;
59607;SDS011;45426;44.726;10.390;2023-03-17T14:43:11;7.13;;;3.28;;
59607;SDS011;45426;44.726;10.390;2023-03-17T14:48:30;12.23;;;3.50;;
59607;SDS011;45426;44.726;10.390;2023-03-17T14:51:02;7.82;;;3.42;;
59607;SDS011;45426;44.726;10.390;2023-03-17T14:53:32;7.72;;;3.70;;
59607;SDS011;45426;44.726;10.390;2023-03-17T14:55:59;8.57;;;3.30;;
59607;SDS011;45426;44.726;10.390;2023-03-17T14:58:27;6.22;;;3.38;;
59607;SDS011;45426;44.726;10.390;2023-03-17T15:01:05;7.20;;;3.35;;
59607;SDS011;45426;44.726;10.390;2023-03-17T15:03:37;5.88;;;3.20;;
59607;SDS011;45426;44.726;10.390;2023-03-17T15:06:06;5.65;;;2.97;;
59607;SDS011;45426;44.726;10.390;2023-03-17T15:08:42;7.22;;;3.33;;
59607;SDS011;45426;44.726;10.390;2023-03-17T15:11:14;7.90;;;3.35;;
59607;SDS011;45426;44.726;10.390;2023-03-17T15:13:43;5.88;;;3.15;;
59607;SDS011;45426;44.726;10.390;2023-03-17T15:16:29;7.25;;;3.28;;
59607;SDS011;45426;44.726;10.390;2023-03-17T15:19:17;6.15;;;3.10;;
59607;SDS011;45426;44.726;10.390;2023-03-17T15:21:45;5.70;;;3.08;;
59607;SDS011;45426;44.726;10.390;2023-03-17T15:27:16;7.55;;;3.20;;
59607;SDS011;45426;44.726;10.390;2023-03-17T15:29:42;7.68;;;3.42;;
59607;SDS011;45426;44.726;10.390;2023-03-17T15:32:12;7.22;;;3.33;;
59607;SDS011;45426;44.726;10.390;2023-03-17T15:34:40;6.50;;;3.33;;
59607;SDS011;45426;44.726;10.390;2023-03-17T15:37:19;8.48;;;3.35;;
59607;SDS011;45426;44.726;10.390;2023-03-17T15:39:52;7.50;;;3.47;;
59607;SDS011;45426;44.726;10.390;2023-03-17T15:42:20;7.82;;;3.55;;
59607;SDS011;45426;44.726;10.390;2023-03-17T15:44:49;8.60;;;3.60;;
59607;SDS011;45426;44.726;10.390;2023-03-17T15:47:16;11.35;;;3.47;;
59607;SDS011;45426;44.726;10.390;2023-03-17T15:49:44;9.95;;;3.58;;
59607;SDS011;45426;44.726;10.390;2023-03-17T15:52:14;8.77;;;3.63;;
59607;SDS011;45426;44.726;10.390;2023-03-17T15:54:41;6.20;;;3.25;;
59607;SDS011;45426;44.726;10.390;2023-03-17T15:57:09;7.70;;;4.03;;
59607;SDS011;45426;44.726;10.390;2023-03-17T15:59:36;7.90;;;3.80;;
59607;SDS011;45426;44.726;10.390;2023-03-17T16:02:01;8.77;;;3.67;;
59607;SDS011;45426;44.726;10.390;2023-03-17T16:04:27;7.55;;;3.33;;
59607;SDS011;45426;44.726;10.390;2023-03-17T16:06:53;10.45;;;3.60;;
59607;SDS011;45426;44.726;10.390;2023-03-17T16:09:18;8.15;;;3.50;;
59607;SDS011;45426;44.726;10.390;2023-03-17T16:11:43;8.57;;;3.72;;
59607;SDS011;45426;44.726;10.390;2023-03-17T16:14:09;7.88;;;3.88;;
59607;SDS011;45426;44.726;10.390;2023-03-17T16:16:36;10.23;;;3.88;;
59607;SDS011;45426;44.726;10.390;2023-03-17T16:19:07;10.45;;;4.10;;
59607;SDS011;45426;44.726;10.390;2023-03-17T16:21:40;7.60;;;3.47;;
59607;SDS011;45426;44.726;10.390;2023-03-17T16:24:08;8.02;;;3.60;;
59607;SDS011;45426;44.726;10.390;2023-03-17T16:26:41;8.52;;;3.80;;
59607;SDS011;45426;44.726;10.390;2023-03-17T16:29:10;7.50;;;3.85;;
59607;SDS011;45426;44.726;10.390;2023-03-17T16:31:37;8.70;;;3.45;;
59607;SDS011;45426;44.726;10.390;2023-03-17T16:34:07;8.60;;;3.67;;
59607;SDS011;45426;44.726;10.390;2023-03-17T16:36:42;6.93;;;3.60;;
59607;SDS011;45426;44.726;10.390;2023-03-17T16:39:13;7.65;;;3.65;;
59607;SDS011;45426;44.726;10.390;2023-03-17T16:41:48;7.88;;;3.88;;
59607;SDS011;45426;44.726;10.390;2023-03-17T16:44:15;9.65;;;4.15;;
59607;SDS011;45426;44.726;10.390;2023-03-17T16:46:42;7.35;;;3.78;;
59607;SDS011;45426;44.726;10.390;2023-03-17T16:49:15;6.68;;;3.80;;
59607;SDS011;45426;44.726;10.390;2023-03-17T16:51:42;8.30;;;3.97;;
59607;SDS011;45426;44.726;10.390;2023-03-17T16:54:08;7.85;;;3.95;;
59607;SDS011;45426;44.726;10.390;2023-03-17T16:56:35;8.52;;;4.18;;
59607;SDS011;45426;44.726;10.390;2023-03-17T16:59:01;9.27;;;4.40;;
59607;SDS011;45426;44.726;10.390;2023-03-17T17:01:27;8.77;;;4.57;;
59607;SDS011;45426;44.726;10.390;2023-03-17T17:03:53;10.05;;;4.68;;